Terminal Aerodrome Forecast
Issued by NWS

Home | Current Version | Previous Version | Text Only | Print | Product List | Glossary On
Versions: 1 2 3 4 5 6 7 8 9 10 11 12 13 14 15 16 17 18 19
000
FTUS42 KTBW 272336
TAFLAL
TAF
KLAL 272336Z 2800/2824 25010KT P6SM SCT015 OVC040
      TEMPO 2800/2802 BKN015
     FM280400 28008KT P6SM FEW250
     FM281100 32008KT P6SM FEW250
     FM281500 34013G20KT P6SM FEW250
     FM282300 30009KT P6SM FEW250=

USA.gov is the U.S. government's official web portal to all federal, state and local government web resources and services.